sensor_id;sensor_type;location;lat;lon;timestamp;P1;durP1;ratioP1;P2;durP2;ratioP2
51602;SDS011;37954;51.980;5.850;2022-11-15T00:02:06;27.13;;;16.40;;
51602;SDS011;37954;51.980;5.850;2022-11-15T00:06:36;30.60;;;16.13;;
51602;SDS011;37954;51.980;5.850;2022-11-15T00:11:08;25.50;;;15.93;;
51602;SDS011;37954;51.980;5.850;2022-11-15T00:15:40;29.20;;;16.53;;
51602;SDS011;37954;51.980;5.850;2022-11-15T00:20:10;21.43;;;15.37;;
51602;SDS011;37954;51.980;5.850;2022-11-15T00:24:41;24.27;;;15.37;;
51602;SDS011;37954;51.980;5.850;2022-11-15T00:29:12;19.27;;;14.60;;
51602;SDS011;37954;51.980;5.850;2022-11-15T00:33:42;23.77;;;14.93;;
51602;SDS011;37954;51.980;5.850;2022-11-15T00:38:14;29.40;;;16.77;;
51602;SDS011;37954;51.980;5.850;2022-11-15T00:42:44;28.20;;;15.97;;
51602;SDS011;37954;51.980;5.850;2022-11-15T00:47:15;23.87;;;15.37;;
51602;SDS011;37954;51.980;5.850;2022-11-15T00:51:45;22.73;;;15.67;;
51602;SDS011;37954;51.980;5.850;2022-11-15T00:56:15;24.93;;;15.90;;
51602;SDS011;37954;51.980;5.850;2022-11-15T01:00:44;24.10;;;14.93;;
51602;SDS011;37954;51.980;5.850;2022-11-15T01:05:14;22.03;;;15.37;;
51602;SDS011;37954;51.980;5.850;2022-11-15T01:09:45;22.17;;;15.13;;
51602;SDS011;37954;51.980;5.850;2022-11-15T01:14:15;22.73;;;16.30;;
51602;SDS011;37954;51.980;5.850;2022-11-15T01:18:48;23.00;;;14.47;;
51602;SDS011;37954;51.980;5.850;2022-11-15T01:23:19;19.43;;;14.63;;
51602;SDS011;37954;51.980;5.850;2022-11-15T01:27:48;20.77;;;15.53;;
51602;SDS011;37954;51.980;5.850;2022-11-15T01:32:18;19.30;;;14.30;;
51602;SDS011;37954;51.980;5.850;2022-11-15T01:36:48;23.67;;;15.40;;
51602;SDS011;37954;51.980;5.850;2022-11-15T01:41:19;18.60;;;14.67;;
51602;SDS011;37954;51.980;5.850;2022-11-15T01:46:37;19.93;;;15.00;;
51602;SDS011;37954;51.980;5.850;2022-11-15T01:50:51;18.03;;;14.30;;
51602;SDS011;37954;51.980;5.850;2022-11-15T01:55:22;17.17;;;14.30;;
51602;SDS011;37954;51.980;5.850;2022-11-15T01:59:55;17.70;;;14.23;;
51602;SDS011;37954;51.980;5.850;2022-11-15T02:04:31;19.83;;;14.13;;
51602;SDS011;37954;51.980;5.850;2022-11-15T02:09:03;17.67;;;14.43;;
51602;SDS011;37954;51.980;5.850;2022-11-15T02:13:33;18.33;;;13.93;;
51602;SDS011;37954;51.980;5.850;2022-11-15T02:22:58;20.30;;;14.90;;
51602;SDS011;37954;51.980;5.850;2022-11-15T02:27:58;19.10;;;14.23;;
51602;SDS011;37954;51.980;5.850;2022-11-15T02:32:49;19.13;;;14.07;;
51602;SDS011;37954;51.980;5.850;2022-11-15T02:37:47;16.47;;;14.37;;
51602;SDS011;37954;51.980;5.850;2022-11-15T02:42:26;20.00;;;14.00;;
51602;SDS011;37954;51.980;5.850;2022-11-15T02:47:18;18.77;;;13.57;;
51602;SDS011;37954;51.980;5.850;2022-11-15T02:51:50;18.13;;;13.23;;
51602;SDS011;37954;51.980;5.850;2022-11-15T02:56:22;19.20;;;13.60;;
51602;SDS011;37954;51.980;5.850;2022-11-15T03:00:59;20.50;;;14.00;;
51602;SDS011;37954;51.980;5.850;2022-11-15T03:10:21;18.63;;;14.30;;
51602;SDS011;37954;51.980;5.850;2022-11-15T03:19:44;15.83;;;12.90;;
51602;SDS011;37954;51.980;5.850;2022-11-15T03:24:16;14.73;;;13.13;;
51602;SDS011;37954;51.980;5.850;2022-11-15T03:29:03;15.73;;;14.07;;
51602;SDS011;37954;51.980;5.850;2022-11-15T03:33:38;17.13;;;14.33;;
51602;SDS011;37954;51.980;5.850;2022-11-15T03:38:17;15.40;;;13.77;;
51602;SDS011;37954;51.980;5.850;2022-11-15T03:42:58;17.50;;;14.27;;
51602;SDS011;37954;51.980;5.850;2022-11-15T03:47:41;19.03;;;15.93;;
51602;SDS011;37954;51.980;5.850;2022-11-15T03:52:17;16.47;;;14.43;;
51602;SDS011;37954;51.980;5.850;2022-11-15T03:56:48;17.40;;;14.90;;
51602;SDS011;37954;51.980;5.850;2022-11-15T04:01:18;18.33;;;14.38;;
51602;SDS011;37954;51.980;5.850;2022-11-15T04:05:48;22.48;;;15.75;;
51602;SDS011;37954;51.980;5.850;2022-11-15T04:10:18;17.88;;;14.32;;
51602;SDS011;37954;51.980;5.850;2022-11-15T04:14:48;22.53;;;15.90;;
51602;SDS011;37954;51.980;5.850;2022-11-15T04:19:36;22.13;;;16.83;;
51602;SDS011;37954;51.980;5.850;2022-11-15T04:24:25;23.38;;;15.50;;
51602;SDS011;37954;51.980;5.850;2022-11-15T04:28:55;19.20;;;16.08;;
51602;SDS011;37954;51.980;5.850;2022-11-15T04:33:43;16.48;;;14.55;;
51602;SDS011;37954;51.980;5.850;2022-11-15T04:38:13;22.97;;;16.33;;
51602;SDS011;37954;51.980;5.850;2022-11-15T04:42:43;18.98;;;15.40;;
51602;SDS011;37954;51.980;5.850;2022-11-15T04:47:13;20.57;;;15.93;;
51602;SDS011;37954;51.980;5.850;2022-11-15T04:51:44;19.38;;;15.90;;
51602;SDS011;37954;51.980;5.850;2022-11-15T04:56:14;18.98;;;15.23;;
51602;SDS011;37954;51.980;5.850;2022-11-15T05:00:44;19.35;;;15.07;;
51602;SDS011;37954;51.980;5.850;2022-11-15T05:05:14;20.05;;;15.10;;
51602;SDS011;37954;51.980;5.850;2022-11-15T05:09:44;23.55;;;16.38;;
51602;SDS011;37954;51.980;5.850;2022-11-15T05:14:14;21.30;;;16.08;;
51602;SDS011;37954;51.980;5.850;2022-11-15T05:18:44;21.15;;;15.63;;
51602;SDS011;37954;51.980;5.850;2022-11-15T05:23:15;20.38;;;16.15;;
51602;SDS011;37954;51.980;5.850;2022-11-15T05:27:45;24.92;;;16.85;;
51602;SDS011;37954;51.980;5.850;2022-11-15T05:32:14;19.95;;;16.17;;
51602;SDS011;37954;51.980;5.850;2022-11-15T05:36:47;21.30;;;15.65;;
51602;SDS011;37954;51.980;5.850;2022-11-15T05:41:19;23.52;;;16.55;;
51602;SDS011;37954;51.980;5.850;2022-11-15T05:45:53;21.67;;;16.52;;
51602;SDS011;37954;51.980;5.850;2022-11-15T05:50:24;20.52;;;16.65;;
51602;SDS011;37954;51.980;5.850;2022-11-15T05:54:55;23.60;;;16.52;;
51602;SDS011;37954;51.980;5.850;2022-11-15T05:59:28;20.55;;;17.15;;
51602;SDS011;37954;51.980;5.850;2022-11-15T06:04:00;26.55;;;16.67;;
51602;SDS011;37954;51.980;5.850;2022-11-15T06:08:30;21.67;;;17.25;;
51602;SDS011;37954;51.980;5.850;2022-11-15T06:13:00;19.63;;;17.05;;
51602;SDS011;37954;51.980;5.850;2022-11-15T06:17:32;21.98;;;16.08;;
51602;SDS011;37954;51.980;5.850;2022-11-15T06:22:02;23.42;;;18.70;;
51602;SDS011;37954;51.980;5.850;2022-11-15T06:26:32;22.75;;;17.25;;
51602;SDS011;37954;51.980;5.850;2022-11-15T06:31:06;24.05;;;15.98;;
51602;SDS011;37954;51.980;5.850;2022-11-15T06:35:43;21.52;;;14.80;;
51602;SDS011;37954;51.980;5.850;2022-11-15T06:40:13;19.42;;;15.00;;
51602;SDS011;37954;51.980;5.850;2022-11-15T06:44:43;19.45;;;14.93;;
51602;SDS011;37954;51.980;5.850;2022-11-15T06:49:13;21.70;;;15.80;;
51602;SDS011;37954;51.980;5.850;2022-11-15T06:53:43;17.25;;;14.02;;
51602;SDS011;37954;51.980;5.850;2022-11-15T06:58:13;18.45;;;13.77;;
51602;SDS011;37954;51.980;5.850;2022-11-15T07:02:43;16.15;;;13.70;;
51602;SDS011;37954;51.980;5.850;2022-11-15T07:07:14;17.27;;;14.93;;
51602;SDS011;37954;51.980;5.850;2022-11-15T07:11:44;17.45;;;14.30;;
51602;SDS011;37954;51.980;5.850;2022-11-15T07:16:14;16.60;;;13.85;;
51602;SDS011;37954;51.980;5.850;2022-11-15T07:20:44;14.88;;;13.35;;
51602;SDS011;37954;51.980;5.850;2022-11-15T07:25:14;14.00;;;12.55;;
51602;SDS011;37954;51.980;5.850;2022-11-15T07:29:45;15.27;;;11.82;;
51602;SDS011;37954;51.980;5.850;2022-11-15T07:34:15;15.65;;;12.85;;
51602;SDS011;37954;51.980;5.850;2022-11-15T07:38:45;16.08;;;12.48;;
51602;SDS011;37954;51.980;5.850;2022-11-15T07:43:15;13.25;;;11.73;;
51602;SDS011;37954;51.980;5.850;2022-11-15T07:47:46;14.40;;;11.90;;
51602;SDS011;37954;51.980;5.850;2022-11-15T07:52:19;13.93;;;11.93;;
51602;SDS011;37954;51.980;5.850;2022-11-15T07:56:49;14.90;;;12.02;;
51602;SDS011;37954;51.980;5.850;2022-11-15T08:01:20;13.27;;;11.43;;
51602;SDS011;37954;51.980;5.850;2022-11-15T08:05:50;14.93;;;11.95;;
51602;SDS011;37954;51.980;5.850;2022-11-15T08:10:21;14.30;;;12.60;;
51602;SDS011;37954;51.980;5.850;2022-11-15T08:14:51;17.85;;;12.27;;
51602;SDS011;37954;51.980;5.850;2022-11-15T08:19:22;14.63;;;11.05;;
51602;SDS011;37954;51.980;5.850;2022-11-15T08:23:52;16.08;;;12.35;;
51602;SDS011;37954;51.980;5.850;2022-11-15T08:28:22;38.38;;;24.42;;
51602;SDS011;37954;51.980;5.850;2022-11-15T08:32:52;14.60;;;12.38;;
51602;SDS011;37954;51.980;5.850;2022-11-15T08:37:25;15.63;;;11.60;;
51602;SDS011;37954;51.980;5.850;2022-11-15T08:41:55;13.90;;;11.85;;
51602;SDS011;37954;51.980;5.850;2022-11-15T08:46:25;18.50;;;12.98;;
51602;SDS011;37954;51.980;5.850;2022-11-15T08:50:55;13.43;;;11.60;;
51602;SDS011;37954;51.980;5.850;2022-11-15T08:55:26;13.63;;;10.85;;
51602;SDS011;37954;51.980;5.850;2022-11-15T08:59:56;11.52;;;10.25;;
51602;SDS011;37954;51.980;5.850;2022-11-15T09:04:27;14.13;;;11.27;;
51602;SDS011;37954;51.980;5.850;2022-11-15T09:08:57;12.63;;;10.27;;
51602;SDS011;37954;51.980;5.850;2022-11-15T09:13:27;11.95;;;8.82;;
51602;SDS011;37954;51.980;5.850;2022-11-15T09:17:58;9.48;;;8.27;;
51602;SDS011;37954;51.980;5.850;2022-11-15T09:22:29;12.60;;;8.45;;
51602;SDS011;37954;51.980;5.850;2022-11-15T09:26:58;8.18;;;7.38;;
51602;SDS011;37954;51.980;5.850;2022-11-15T09:31:29;11.70;;;8.23;;
51602;SDS011;37954;51.980;5.850;2022-11-15T09:36:00;17.80;;;8.55;;
51602;SDS011;37954;51.980;5.850;2022-11-15T09:40:31;8.35;;;6.85;;
51602;SDS011;37954;51.980;5.850;2022-11-15T09:45:17;10.60;;;6.05;;
51602;SDS011;37954;51.980;5.850;2022-11-15T09:50:31;7.43;;;5.80;;
51602;SDS011;37954;51.980;5.850;2022-11-15T09:54:48;6.15;;;5.03;;
51602;SDS011;37954;51.980;5.850;2022-11-15T10:03:27;7.05;;;4.80;;
51602;SDS011;37954;51.980;5.850;2022-11-15T10:07:58;6.43;;;4.55;;
51602;SDS011;37954;51.980;5.850;2022-11-15T10:12:24;9.13;;;4.30;;
51602;SDS011;37954;51.980;5.850;2022-11-15T10:16:42;4.25;;;3.85;;
51602;SDS011;37954;51.980;5.850;2022-11-15T10:20:59;5.20;;;4.40;;
51602;SDS011;37954;51.980;5.850;2022-11-15T10:25:22;5.43;;;4.05;;
51602;SDS011;37954;51.980;5.850;2022-11-15T10:29:35;4.25;;;3.40;;
51602;SDS011;37954;51.980;5.850;2022-11-15T10:33:46;3.55;;;3.25;;
51602;SDS011;37954;51.980;5.850;2022-11-15T10:38:04;3.35;;;2.92;;
51602;SDS011;37954;51.980;5.850;2022-11-15T10:42:28;4.40;;;2.50;;
51602;SDS011;37954;51.980;5.850;2022-11-15T10:46:42;2.63;;;2.42;;
51602;SDS011;37954;51.980;5.850;2022-11-15T10:50:58;3.47;;;2.30;;
51602;SDS011;37954;51.980;5.850;2022-11-15T10:59:28;4.05;;;2.00;;
51602;SDS011;37954;51.980;5.850;2022-11-15T11:03:59;3.78;;;2.00;;
51602;SDS011;37954;51.980;5.850;2022-11-15T11:08:24;2.13;;;1.92;;
51602;SDS011;37954;51.980;5.850;2022-11-15T11:12:35;1.63;;;1.42;;
51602;SDS011;37954;51.980;5.850;2022-11-15T11:16:49;1.67;;;1.55;;
51602;SDS011;37954;51.980;5.850;2022-11-15T11:21:08;2.90;;;1.80;;
51602;SDS011;37954;51.980;5.850;2022-11-15T11:29:48;2.90;;;1.70;;
51602;SDS011;37954;51.980;5.850;2022-11-15T11:34:04;1.42;;;1.27;;
51602;SDS011;37954;51.980;5.850;2022-11-15T11:47:11;2.95;;;1.50;;
51602;SDS011;37954;51.980;5.850;2022-11-15T11:51:33;1.55;;;1.10;;
51602;SDS011;37954;51.980;5.850;2022-11-15T11:55:51;2.15;;;1.52;;
51602;SDS011;37954;51.980;5.850;2022-11-15T12:00:21;2.47;;;1.30;;
51602;SDS011;37954;51.980;5.850;2022-11-15T12:04:38;3.13;;;1.20;;
51602;SDS011;37954;51.980;5.850;2022-11-15T12:09:04;1.50;;;1.38;;
51602;SDS011;37954;51.980;5.850;2022-11-15T12:13:24;4.03;;;1.80;;
51602;SDS011;37954;51.980;5.850;2022-11-15T12:17:40;2.00;;;1.10;;
51602;SDS011;37954;51.980;5.850;2022-11-15T12:21:59;1.92;;;1.30;;
51602;SDS011;37954;51.980;5.850;2022-11-15T12:26:15;2.35;;;1.30;;
51602;SDS011;37954;51.980;5.850;2022-11-15T12:30:40;1.88;;;1.20;;
51602;SDS011;37954;51.980;5.850;2022-11-15T12:35:00;1.85;;;1.38;;
51602;SDS011;37954;51.980;5.850;2022-11-15T12:39:14;1.88;;;1.40;;
51602;SDS011;37954;51.980;5.850;2022-11-15T12:43:40;1.77;;;1.10;;
51602;SDS011;37954;51.980;5.850;2022-11-15T12:47:53;1.45;;;1.00;;
51602;SDS011;37954;51.980;5.850;2022-11-15T12:52:27;1.20;;;1.10;;
51602;SDS011;37954;51.980;5.850;2022-11-15T12:56:38;1.35;;;1.20;;
51602;SDS011;37954;51.980;5.850;2022-11-15T13:00:51;2.05;;;1.10;;
51602;SDS011;37954;51.980;5.850;2022-11-15T13:13:47;4.22;;;1.98;;
51602;SDS011;37954;51.980;5.850;2022-11-15T13:17:58;4.88;;;2.38;;
51602;SDS011;37954;51.980;5.850;2022-11-15T13:22:11;2.90;;;2.15;;
51602;SDS011;37954;51.980;5.850;2022-11-15T13:26:41;5.03;;;2.50;;
51602;SDS011;37954;51.980;5.850;2022-11-15T13:30:53;4.05;;;1.50;;
51602;SDS011;37954;51.980;5.850;2022-11-15T13:35:07;5.57;;;3.40;;
51602;SDS011;37954;51.980;5.850;2022-11-15T13:39:26;3.55;;;3.03;;
51602;SDS011;37954;51.980;5.850;2022-11-15T13:43:45;2.42;;;1.77;;
51602;SDS011;37954;51.980;5.850;2022-11-15T13:47:58;10.82;;;6.60;;
51602;SDS011;37954;51.980;5.850;2022-11-15T13:52:11;5.95;;;2.03;;
51602;SDS011;37954;51.980;5.850;2022-11-15T13:56:25;5.18;;;1.70;;
51602;SDS011;37954;51.980;5.850;2022-11-15T14:00:39;1.10;;;0.98;;
51602;SDS011;37954;51.980;5.850;2022-11-15T14:05:14;4.25;;;1.05;;
51602;SDS011;37954;51.980;5.850;2022-11-15T14:09:35;5.50;;;1.15;;
51602;SDS011;37954;51.980;5.850;2022-11-15T14:23:02;1.55;;;1.27;;
51602;SDS011;37954;51.980;5.850;2022-11-15T14:31:27;1.63;;;1.30;;
51602;SDS011;37954;51.980;5.850;2022-11-15T14:35:38;3.00;;;1.55;;
51602;SDS011;37954;51.980;5.850;2022-11-15T14:39:50;6.65;;;1.23;;
51602;SDS011;37954;51.980;5.850;2022-11-15T14:44:03;1.50;;;1.40;;
51602;SDS011;37954;51.980;5.850;2022-11-15T14:48:16;2.03;;;1.42;;
51602;SDS011;37954;51.980;5.850;2022-11-15T14:52:28;2.28;;;1.30;;
51602;SDS011;37954;51.980;5.850;2022-11-15T14:56:44;2.60;;;1.42;;
51602;SDS011;37954;51.980;5.850;2022-11-15T15:00:55;2.38;;;1.48;;
51602;SDS011;37954;51.980;5.850;2022-11-15T15:05:14;2.08;;;1.05;;
51602;SDS011;37954;51.980;5.850;2022-11-15T15:09:31;2.25;;;1.10;;
51602;SDS011;37954;51.980;5.850;2022-11-15T15:13:42;2.58;;;1.13;;
51602;SDS011;37954;51.980;5.850;2022-11-15T15:17:54;1.35;;;1.00;;
51602;SDS011;37954;51.980;5.850;2022-11-15T15:22:08;7.40;;;1.40;;
51602;SDS011;37954;51.980;5.850;2022-11-15T15:26:28;1.40;;;1.10;;
51602;SDS011;37954;51.980;5.850;2022-11-15T15:30:39;4.82;;;1.10;;
51602;SDS011;37954;51.980;5.850;2022-11-15T15:34:51;2.88;;;1.58;;
51602;SDS011;37954;51.980;5.850;2022-11-15T15:39:03;5.38;;;1.67;;
51602;SDS011;37954;51.980;5.850;2022-11-15T15:43:14;1.48;;;1.23;;
51602;SDS011;37954;51.980;5.850;2022-11-15T15:47:26;3.20;;;1.30;;
51602;SDS011;37954;51.980;5.850;2022-11-15T15:51:37;2.25;;;1.50;;
51602;SDS011;37954;51.980;5.850;2022-11-15T15:55:49;1.20;;;1.10;;
51602;SDS011;37954;51.980;5.850;2022-11-15T16:00:01;2.22;;;1.48;;
51602;SDS011;37954;51.980;5.850;2022-11-15T16:04:22;1.70;;;1.45;;
51602;SDS011;37954;51.980;5.850;2022-11-15T16:08:34;1.70;;;1.40;;
51602;SDS011;37954;51.980;5.850;2022-11-15T16:13:06;2.50;;;1.70;;
51602;SDS011;37954;51.980;5.850;2022-11-15T16:17:18;2.97;;;1.70;;
51602;SDS011;37954;51.980;5.850;2022-11-15T16:21:32;2.97;;;1.67;;
51602;SDS011;37954;51.980;5.850;2022-11-15T16:25:44;1.98;;;1.80;;
51602;SDS011;37954;51.980;5.850;2022-11-15T16:29:58;1.67;;;1.50;;
51602;SDS011;37954;51.980;5.850;2022-11-15T16:34:10;2.53;;;1.60;;
51602;SDS011;37954;51.980;5.850;2022-11-15T16:38:21;7.85;;;1.85;;
51602;SDS011;37954;51.980;5.850;2022-11-15T16:42:33;2.55;;;1.40;;
51602;SDS011;37954;51.980;5.850;2022-11-15T16:46:44;2.03;;;1.75;;
51602;SDS011;37954;51.980;5.850;2022-11-15T16:51:01;2.38;;;1.85;;
51602;SDS011;37954;51.980;5.850;2022-11-15T16:55:15;3.40;;;2.00;;
51602;SDS011;37954;51.980;5.850;2022-11-15T16:59:26;4.63;;;1.90;;
51602;SDS011;37954;51.980;5.850;2022-11-15T17:03:38;2.15;;;1.85;;
51602;SDS011;37954;51.980;5.850;2022-11-15T17:07:50;2.28;;;1.65;;
51602;SDS011;37954;51.980;5.850;2022-11-15T17:12:05;2.25;;;1.77;;
51602;SDS011;37954;51.980;5.850;2022-11-15T17:16:16;2.67;;;1.67;;
51602;SDS011;37954;51.980;5.850;2022-11-15T17:20:29;1.70;;;1.60;;
51602;SDS011;37954;51.980;5.850;2022-11-15T17:24:40;3.67;;;1.77;;
51602;SDS011;37954;51.980;5.850;2022-11-15T17:28:55;1.75;;;1.60;;
51602;SDS011;37954;51.980;5.850;2022-11-15T17:33:07;3.63;;;2.10;;
51602;SDS011;37954;51.980;5.850;2022-11-15T17:37:18;7.20;;;4.22;;
51602;SDS011;37954;51.980;5.850;2022-11-15T17:41:30;4.05;;;3.08;;
51602;SDS011;37954;51.980;5.850;2022-11-15T17:45:42;6.88;;;2.60;;
51602;SDS011;37954;51.980;5.850;2022-11-15T17:49:54;3.08;;;2.42;;
51602;SDS011;37954;51.980;5.850;2022-11-15T17:54:05;2.72;;;2.00;;
51602;SDS011;37954;51.980;5.850;2022-11-15T17:58:17;2.80;;;2.50;;
51602;SDS011;37954;51.980;5.850;2022-11-15T18:02:29;3.20;;;2.35;;
51602;SDS011;37954;51.980;5.850;2022-11-15T18:06:41;12.23;;;6.03;;
51602;SDS011;37954;51.980;5.850;2022-11-15T18:11:03;7.38;;;4.55;;
51602;SDS011;37954;51.980;5.850;2022-11-15T18:15:16;3.72;;;2.38;;
51602;SDS011;37954;51.980;5.850;2022-11-15T18:19:29;2.85;;;2.47;;
51602;SDS011;37954;51.980;5.850;2022-11-15T18:23:42;3.65;;;2.80;;
51602;SDS011;37954;51.980;5.850;2022-11-15T18:27:54;3.45;;;2.97;;
51602;SDS011;37954;51.980;5.850;2022-11-15T18:32:06;4.97;;;3.30;;
51602;SDS011;37954;51.980;5.850;2022-11-15T18:36:23;4.07;;;3.25;;
51602;SDS011;37954;51.980;5.850;2022-11-15T18:40:36;5.22;;;3.22;;
51602;SDS011;37954;51.980;5.850;2022-11-15T18:44:48;4.50;;;3.22;;
51602;SDS011;37954;51.980;5.850;2022-11-15T18:49:00;3.45;;;3.15;;
51602;SDS011;37954;51.980;5.850;2022-11-15T18:53:12;4.85;;;3.60;;
51602;SDS011;37954;51.980;5.850;2022-11-15T18:57:24;5.65;;;3.30;;
51602;SDS011;37954;51.980;5.850;2022-11-15T19:01:36;3.88;;;3.17;;
51602;SDS011;37954;51.980;5.850;2022-11-15T19:05:50;4.53;;;3.30;;
51602;SDS011;37954;51.980;5.850;2022-11-15T19:10:01;6.03;;;3.40;;
51602;SDS011;37954;51.980;5.850;2022-11-15T19:14:14;6.72;;;4.05;;
51602;SDS011;37954;51.980;5.850;2022-11-15T19:18:27;4.50;;;3.58;;
51602;SDS011;37954;51.980;5.850;2022-11-15T19:22:39;5.78;;;3.70;;
51602;SDS011;37954;51.980;5.850;2022-11-15T19:26:51;4.57;;;4.03;;
51602;SDS011;37954;51.980;5.850;2022-11-15T19:31:07;5.30;;;4.20;;
51602;SDS011;37954;51.980;5.850;2022-11-15T19:35:22;6.82;;;4.32;;
51602;SDS011;37954;51.980;5.850;2022-11-15T19:39:33;4.30;;;3.90;;
51602;SDS011;37954;51.980;5.850;2022-11-15T19:43:51;6.22;;;4.97;;
51602;SDS011;37954;51.980;5.850;2022-11-15T19:48:03;4.50;;;3.70;;
51602;SDS011;37954;51.980;5.850;2022-11-15T19:52:15;7.18;;;5.00;;
51602;SDS011;37954;51.980;5.850;2022-11-15T19:56:26;6.25;;;4.45;;
51602;SDS011;37954;51.980;5.850;2022-11-15T20:00:38;4.65;;;3.72;;
51602;SDS011;37954;51.980;5.850;2022-11-15T20:04:50;5.80;;;5.18;;
51602;SDS011;37954;51.980;5.850;2022-11-15T20:09:01;6.03;;;4.22;;
51602;SDS011;37954;51.980;5.850;2022-11-15T20:13:13;4.70;;;4.30;;
51602;SDS011;37954;51.980;5.850;2022-11-15T20:17:25;7.60;;;4.25;;
51602;SDS011;37954;51.980;5.850;2022-11-15T20:21:36;4.65;;;4.10;;
51602;SDS011;37954;51.980;5.850;2022-11-15T20:25:48;4.35;;;3.72;;
51602;SDS011;37954;51.980;5.850;2022-11-15T20:30:00;5.28;;;3.83;;
51602;SDS011;37954;51.980;5.850;2022-11-15T20:34:12;4.93;;;4.25;;
51602;SDS011;37954;51.980;5.850;2022-11-15T20:38:23;4.68;;;4.20;;
51602;SDS011;37954;51.980;5.850;2022-11-15T20:42:35;5.90;;;4.55;;
51602;SDS011;37954;51.980;5.850;2022-11-15T20:46:47;5.53;;;4.35;;
51602;SDS011;37954;51.980;5.850;2022-11-15T20:51:02;7.00;;;4.70;;
51602;SDS011;37954;51.980;5.850;2022-11-15T20:55:16;5.45;;;4.45;;
51602;SDS011;37954;51.980;5.850;2022-11-15T20:59:28;5.25;;;4.18;;
51602;SDS011;37954;51.980;5.850;2022-11-15T21:03:39;5.85;;;5.28;;
51602;SDS011;37954;51.980;5.850;2022-11-15T21:07:51;6.38;;;4.90;;
51602;SDS011;37954;51.980;5.850;2022-11-15T21:12:03;6.68;;;5.80;;
51602;SDS011;37954;51.980;5.850;2022-11-15T21:16:23;9.38;;;6.38;;
51602;SDS011;37954;51.980;5.850;2022-11-15T21:20:35;7.22;;;5.80;;
51602;SDS011;37954;51.980;5.850;2022-11-15T21:24:46;7.97;;;6.18;;
51602;SDS011;37954;51.980;5.850;2022-11-15T21:28:58;7.32;;;6.18;;
51602;SDS011;37954;51.980;5.850;2022-11-15T21:33:10;7.35;;;5.90;;
51602;SDS011;37954;51.980;5.850;2022-11-15T21:37:21;7.25;;;6.10;;
51602;SDS011;37954;51.980;5.850;2022-11-15T21:41:33;7.53;;;6.55;;
51602;SDS011;37954;51.980;5.850;2022-11-15T21:45:57;7.35;;;6.20;;
51602;SDS011;37954;51.980;5.850;2022-11-15T21:50:11;7.07;;;6.38;;
51602;SDS011;37954;51.980;5.850;2022-11-15T21:54:22;7.18;;;6.13;;
51602;SDS011;37954;51.980;5.850;2022-11-15T21:58:34;8.13;;;6.40;;
51602;SDS011;37954;51.980;5.850;2022-11-15T22:02:46;7.57;;;6.80;;
51602;SDS011;37954;51.980;5.850;2022-11-15T22:06:58;8.85;;;7.07;;
51602;SDS011;37954;51.980;5.850;2022-11-15T22:11:09;8.50;;;7.13;;
51602;SDS011;37954;51.980;5.850;2022-11-15T22:15:21;7.70;;;6.90;;
51602;SDS011;37954;51.980;5.850;2022-11-15T22:19:32;7.70;;;6.88;;
51602;SDS011;37954;51.980;5.850;2022-11-15T22:23:44;7.50;;;6.63;;
51602;SDS011;37954;51.980;5.850;2022-11-15T22:27:56;8.25;;;7.35;;
51602;SDS011;37954;51.980;5.850;2022-11-15T22:32:08;8.95;;;8.00;;
51602;SDS011;37954;51.980;5.850;2022-11-15T22:36:19;9.07;;;8.15;;
51602;SDS011;37954;51.980;5.850;2022-11-15T22:40:31;10.82;;;8.25;;
51602;SDS011;37954;51.980;5.850;2022-11-15T22:44:42;10.10;;;8.52;;
51602;SDS011;37954;51.980;5.850;2022-11-15T22:48:54;9.77;;;8.88;;
51602;SDS011;37954;51.980;5.850;2022-11-15T22:53:12;9.77;;;8.77;;
51602;SDS011;37954;51.980;5.850;2022-11-15T22:57:24;10.65;;;8.30;;
51602;SDS011;37954;51.980;5.850;2022-11-15T23:01:35;10.00;;;8.52;;
51602;SDS011;37954;51.980;5.850;2022-11-15T23:05:47;9.90;;;8.63;;
51602;SDS011;37954;51.980;5.850;2022-11-15T23:09:59;10.32;;;9.32;;
51602;SDS011;37954;51.980;5.850;2022-11-15T23:14:29;11.85;;;8.75;;
51602;SDS011;37954;51.980;5.850;2022-11-15T23:18:41;11.25;;;10.02;;
51602;SDS011;37954;51.980;5.850;2022-11-15T23:22:53;11.05;;;9.73;;
51602;SDS011;37954;51.980;5.850;2022-11-15T23:27:05;10.70;;;9.60;;
51602;SDS011;37954;51.980;5.850;2022-11-15T23:31:17;13.80;;;9.82;;
51602;SDS011;37954;51.980;5.850;2022-11-15T23:35:54;10.85;;;9.55;;
51602;SDS011;37954;51.980;5.850;2022-11-15T23:40:05;16.38;;;11.50;;
51602;SDS011;37954;51.980;5.850;2022-11-15T23:44:18;11.82;;;9.82;;
51602;SDS011;37954;51.980;5.850;2022-11-15T23:48:29;10.80;;;9.70;;
51602;SDS011;37954;51.980;5.850;2022-11-15T23:52:42;11.77;;;9.93;;
51602;SDS011;37954;51.980;5.850;2022-11-15T23:56:53;10.93;;;9.65;;
